Welcome to Northern Hawkes Bay. New Zealand.
PWS Header
      nz Flag



Hit Counter


W3C Valid W3C Valid logo


    Wairoa

Select any of the Stations below to visit their websites.










Historic Data from Weather Underground
Select the location of interest below. Wairoa is the default. Please have patience, this Data is slow to load in.
Northern Hawkes Bay Historical Data
Daily Summary for December 08, 2018 Units:  Both    English   Metric
« Previous Day
Next Day »
Daily Weekly Monthly Yearly Custom
  High: Low: Average:
Temperature: 71.4 °F /  21.9 °C 47.7 °F /  8.7 °C 59.9 °F /  15.5 °C
Dew Point: 58.5 °F /  14.7 °C 38.8 °F /  3.8 °C 51.4 °F /  10.8 °C
Humidity: 99% 31% 77%
Wind Speed: 9.2mph /  14.8km/h - 3.5mph /  5.7km/h
Wind Gust: 15.2mph /  24.5km/h - -
Wind- - West
Pressure: 30.2 in /  1022.4 hPa 30.1 in /  1017.9 hPa -
Precipitation: 0 in /  0.0 mm    
Historical Graphs
 
 
Tabular Data for December 08, 2018
Time Temperature Dew Point Pressure Wind Wind Speed Wind Gust Humidity Rainfall Rate (Hourly) solar
00:04 52 °F /  11.1 °C 50.9 °F /  10.5 °C 30.2in /  1021.4hPa Calm   1.6mph /  2.6km/h 96% 0in /  0.0mm 0.00 W/m2
00:09 51.8 °F /  11.0 °C 50.7 °F /  10.4 °C 30.2in /  1021.5hPa Calm   2.2mph /  3.5km/h 96% 0in /  0.0mm 0.00 W/m2
00:14 51.6 °F /  10.9 °C 51.1 °F /  10.6 °C 30.2in /  1021.4hPa Calm   2.2mph /  3.5km/h 98% 0in /  0.0mm 0.00 W/m2
00:19 51.4 °F /  10.8 °C 50.9 °F /  10.5 °C 30.2in /  1021.4hPa Calm   2.2mph /  3.5km/h 98% 0in /  0.0mm 0.00 W/m2
00:24 51.3 °F /  10.7 °C 50.7 °F /  10.4 °C 30.2in /  1021.2hPa Calm     98% 0in /  0.0mm 0.00 W/m2
00:29 51.1 °F /  10.6 °C 50.5 °F /  10.3 °C 30.2in /  1021.3hPa Calm   2.2mph /  3.5km/h 98% 0in /  0.0mm 0.00 W/m2
00:34 51.1 °F /  10.6 °C 50.7 °F /  10.4 °C 30.2in /  1021.3hPa NNW 1.6mph /  2.6km/h 3.8mph /  6.1km/h 99% 0in /  0.0mm 0.00 W/m2
00:39 50.9 °F /  10.5 °C 50.5 °F /  10.3 °C 30.2in /  1021.4hPa NW 2.2mph /  3.5km/h 3.8mph /  6.1km/h 99% 0in /  0.0mm 0.00 W/m2
00:44 50.9 °F /  10.5 °C 50.5 °F /  10.3 °C 30.2in /  1021.3hPa NW 1.6mph /  2.6km/h 3.8mph /  6.1km/h 99% 0in /  0.0mm 0.00 W/m2
00:49 50.7 °F /  10.4 °C 50.5 °F /  10.3 °C 30.2in /  1021.3hPa NW 2.2mph /  3.5km/h 3.8mph /  6.1km/h 99% 0in /  0.0mm 0.00 W/m2
00:54 50.7 °F /  10.4 °C 50.5 °F /  10.3 °C 30.2in /  1021.4hPa NW 3.1mph /  5.0km/h 4.5mph /  7.2km/h 99% 0in /  0.0mm 0.00 W/m2
00:59 50.7 °F /  10.4 °C 50.5 °F /  10.3 °C 30.2in /  1021.4hPa NNW 0.7mph /  1.1km/h 4.5mph /  7.2km/h 99% 0in /  0.0mm 0.00 W/m2
01:04 50.5 °F /  10.3 °C 50.4 °F /  10.2 °C 30.2in /  1021.1hPa NW 1.6mph /  2.6km/h 3.8mph /  6.1km/h 99% 0in /  0.0mm 0.00 W/m2
01:09 50.5 °F /  10.3 °C 50.4 °F /  10.2 °C 30.2in /  1021.2hPa NNW 1.6mph /  2.6km/h 3.8mph /  6.1km/h 99% 0in /  0.0mm 0.00 W/m2
01:14 50.4 °F /  10.2 °C 50.2 °F /  10.1 °C 30.2in /  1021.2hPa NNW 1.6mph /  2.6km/h 3.1mph /  5.0km/h 99% 0in /  0.0mm 0.00 W/m2
01:19 50.4 °F /  10.2 °C 50.2 °F /  10.1 °C 30.2in /  1021.3hPa NNW 0.7mph /  1.1km/h 3.8mph /  6.1km/h 99% 0in /  0.0mm 0.00 W/m2
01:24 50.2 °F /  10.1 °C 49.8 °F /  9.9 °C 30.2in /  1021.3hPa NNW 2.2mph /  3.5km/h 3.8mph /  6.1km/h 99% 0in /  0.0mm 0.00 W/m2
01:29 50.2 °F /  10.1 °C 49.8 °F /  9.9 °C 30.2in /  1021.2hPa NNW 1.6mph /  2.6km/h 3.8mph /  6.1km/h 99% 0in /  0.0mm 0.00 W/m2
01:34 50 °F /  10.0 °C 49.6 °F /  9.8 °C 30.2in /  1021.1hPa NNW 2.2mph /  3.5km/h 3.8mph /  6.1km/h 99% 0in /  0.0mm 0.00 W/m2
01:39 50 °F /  10.0 °C 49.6 °F /  9.8 °C 30.2in /  1021.1hPa NNW 2.2mph /  3.5km/h 3.8mph /  6.1km/h 99% 0in /  0.0mm 0.00 W/m2
01:44 49.8 °F /  9.9 °C 49.6 °F /  9.8 °C 30.2in /  1021.1hPa NNW 3.1mph /  5.0km/h 4.5mph /  7.2km/h 99% 0in /  0.0mm 0.00 W/m2
01:49 49.8 °F /  9.9 °C 49.6 °F /  9.8 °C 30.2in /  1021.1hPa NNW 2.2mph /  3.5km/h 4.5mph /  7.2km/h 99% 0in /  0.0mm 0.00 W/m2
01:54 50 °F /  10.0 °C 49.6 °F /  9.8 °C 30.2in /  1021.0hPa NNW 3.1mph /  5.0km/h 5.4mph /  8.7km/h 99% 0in /  0.0mm 0.00 W/m2
01:59 50 °F /  10.0 °C 49.6 °F /  9.8 °C 30.2in /  1020.9hPa NNW 3.8mph /  6.1km/h 5.4mph /  8.7km/h 99% 0in /  0.0mm 0.00 W/m2
02:04 50 °F /  10.0 °C 49.6 °F /  9.8 °C 30.1in /  1020.8hPa NNW 2.2mph /  3.5km/h 5.4mph /  8.7km/h 99% 0in /  0.0mm 0.00 W/m2
02:09 49.8 °F /  9.9 °C 49.6 °F /  9.8 °C 30.2in /  1021.1hPa NNW 2.2mph /  3.5km/h 6mph /  9.7km/h 99% 0in /  0.0mm 0.00 W/m2
02:14 49.8 °F /  9.9 °C 49.6 °F /  9.8 °C 30.1in /  1020.8hPa North 2.2mph /  3.5km/h 6mph /  9.7km/h 99% 0in /  0.0mm 0.00 W/m2
02:19 49.6 °F /  9.8 °C 49.5 °F /  9.7 °C 30.1in /  1020.7hPa North 2.2mph /  3.5km/h 5.4mph /  8.7km/h 99% 0in /  0.0mm 0.00 W/m2
02:24 49.6 °F /  9.8 °C 49.5 °F /  9.7 °C 30.2in /  1021.0hPa NNW 3.1mph /  5.0km/h 6mph /  9.7km/h 99% 0in /  0.0mm 0.00 W/m2
02:29 49.6 °F /  9.8 °C 49.5 °F /  9.7 °C 30.2in /  1021.0hPa NNW 3.1mph /  5.0km/h 6mph /  9.7km/h 99% 0in /  0.0mm 0.00 W/m2
02:34 49.6 °F /  9.8 °C 49.5 °F /  9.7 °C 30.2in /  1020.9hPa NNW 3.1mph /  5.0km/h 5.4mph /  8.7km/h 99% 0in /  0.0mm 0.00 W/m2
02:39 49.6 °F /  9.8 °C 49.5 °F /  9.7 °C 30.2in /  1020.9hPa NNW 3.8mph /  6.1km/h 5.4mph /  8.7km/h 99% 0in /  0.0mm 0.00 W/m2
02:44 49.6 °F /  9.8 °C 49.5 °F /  9.7 °C 30.2in /  1020.9hPa NNW 3.8mph /  6.1km/h 5.4mph /  8.7km/h 99% 0in /  0.0mm 0.00 W/m2
02:49 49.5 °F /  9.7 °C 49.3 °F /  9.6 °C 30.2in /  1020.9hPa NNW 2.2mph /  3.5km/h 5.4mph /  8.7km/h 99% 0in /  0.0mm 0.00 W/m2
02:54 49.5 °F /  9.7 °C 49.3 °F /  9.6 °C 30.1in /  1020.6hPa NNW 3.1mph /  5.0km/h 6mph /  9.7km/h 99% 0in /  0.0mm 0.00 W/m2
02:59 49.3 °F /  9.6 °C 48.9 °F /  9.4 °C 30.1in /  1020.8hPa NNW 3.1mph /  5.0km/h 6.9mph /  11.1km/h 99% 0in /  0.0mm 0.00 W/m2
03:04 49.1 °F /  9.5 °C 48.7 °F /  9.3 °C 30.1in /  1020.7hPa NNW 4.5mph /  7.2km/h 6.9mph /  11.1km/h 99% 0in /  0.0mm 0.00 W/m2
03:09 49.1 °F /  9.5 °C 48.7 °F /  9.3 °C 30.1in /  1020.6hPa NNW 3.1mph /  5.0km/h 6.9mph /  11.1km/h 99% 0in /  0.0mm 0.00 W/m2
03:14 48.9 °F /  9.4 °C 48.7 °F /  9.3 °C 30.1in /  1020.6hPa North 2.2mph /  3.5km/h 6.9mph /  11.1km/h 99% 0in /  0.0mm 0.00 W/m2
03:19 48.7 °F /  9.3 °C 48.6 °F /  9.2 °C 30.1in /  1020.4hPa NNW 3.1mph /  5.0km/h 6.9mph /  11.1km/h 99% 0in /  0.0mm 0.00 W/m2
03:24 48.7 °F /  9.3 °C 48.6 °F /  9.2 °C 30.1in /  1020.3hPa NNW 4.5mph /  7.2km/h 6.9mph /  11.1km/h 99% 0in /  0.0mm 0.00 W/m2
03:29 48.7 °F /  9.3 °C 48.6 °F /  9.2 °C 30.1in /  1020.3hPa North 3.8mph /  6.1km/h 6.9mph /  11.1km/h 99% 0in /  0.0mm 0.00 W/m2
03:34 48.7 °F /  9.3 °C 48.6 °F /  9.2 °C 30.1in /  1020.2hPa NNW 6mph /  9.7km/h 6.9mph /  11.1km/h 99% 0in /  0.0mm 0.00 W/m2
03:39 48.7 °F /  9.3 °C 48.6 °F /  9.2 °C 30.1in /  1020.4hPa NNW 3.1mph /  5.0km/h 6.9mph /  11.1km/h 99% 0in /  0.0mm 0.00 W/m2
03:44 48.7 °F /  9.3 °C 48.6 °F /  9.2 °C 30.1in /  1020.2hPa NNW 4.5mph /  7.2km/h 6.9mph /  11.1km/h 99% 0in /  0.0mm 0.00 W/m2
03:49 48.7 °F /  9.3 °C 48.6 °F /  9.2 °C 30.1in /  1020.2hPa NNW 3.8mph /  6.1km/h 6.9mph /  11.1km/h 99% 0in /  0.0mm 0.00 W/m2
03:54 48.7 °F /  9.3 °C 48.6 °F /  9.2 °C 30.1in /  1020.2hPa NNW 4.5mph /  7.2km/h 8.3mph /  13.4km/h 99% 0in /  0.0mm 0.00 W/m2
03:59 48.7 °F /  9.3 °C 48.6 °F /  9.2 °C 30.1in /  1020.1hPa North 4.5mph /  7.2km/h 8.3mph /  13.4km/h 99% 0in /  0.0mm 0.00 W/m2
04:04 48.9 °F /  9.4 °C 48.7 °F /  9.3 °C 30.1in /  1020.1hPa NNW 4.5mph /  7.2km/h 9.2mph /  14.8km/h 99% 0in /  0.0mm 0.00 W/m2
04:09 48.7 °F /  9.3 °C 48.6 °F /  9.2 °C 30.1in /  1020.1hPa NNW 3.8mph /  6.1km/h 9.2mph /  14.8km/h 99% 0in /  0.0mm 0.00 W/m2
04:14 48.7 °F /  9.3 °C 48.6 °F /  9.2 °C 30.1in /  1020.2hPa NNW 3.8mph /  6.1km/h 7.6mph /  12.2km/h 99% 0in /  0.0mm 0.00 W/m2
04:19 48.6 °F /  9.2 °C 48.4 °F /  9.1 °C 30.1in /  1020.1hPa NNW 3.8mph /  6.1km/h 7.6mph /  12.2km/h 99% 0in /  0.0mm 0.00 W/m2
04:24 48.4 °F /  9.1 °C 48 °F /  8.9 °C 30.1in /  1020.1hPa NNW 3.8mph /  6.1km/h 6.9mph /  11.1km/h 99% 0in /  0.0mm 0.00 W/m2
04:29 48.2 °F /  9.0 °C 47.8 °F /  8.8 °C 30.1in /  1019.9hPa NNW 3.1mph /  5.0km/h 6mph /  9.7km/h 99% 0in /  0.0mm 0.00 W/m2
04:34 48.2 °F /  9.0 °C 47.8 °F /  8.8 °C 30.1in /  1020.0hPa NNW 4.5mph /  7.2km/h 6.9mph /  11.1km/h 99% 0in /  0.0mm 0.00 W/m2
04:39 48.2 °F /  9.0 °C 47.8 °F /  8.8 °C 30.1in /  1020.2hPa NNW 3.8mph /  6.1km/h 6.9mph /  11.1km/h 99% 0in /  0.0mm 0.00 W/m2
04:44 48.2 °F /  9.0 °C 47.8 °F /  8.8 °C 30.1in /  1020.2hPa NNW 3.8mph /  6.1km/h 6.9mph /  11.1km/h 99% 0in /  0.0mm 0.00 W/m2
04:49 48 °F /  8.9 °C 47.8 °F /  8.8 °C 30.1in /  1020.0hPa NNW 3.8mph /  6.1km/h 7.6mph /  12.2km/h 99% 0in /  0.0mm 0.00 W/m2
04:54 48 °F /  8.9 °C 47.8 °F /  8.8 °C 30.1in /  1020.1hPa NNW 3.8mph /  6.1km/h 7.6mph /  12.2km/h 99% 0in /  0.0mm 0.00 W/m2
04:59 48.2 °F /  9.0 °C 47.8 °F /  8.8 °C 30.1in /  1020.0hPa NW 4.5mph /  7.2km/h 8.3mph /  13.4km/h 99% 0in /  0.0mm 0.00 W/m2
05:04 48.2 °F /  9.0 °C 47.8 °F /  8.8 °C 30.1in /  1020.2hPa NNW 4.5mph /  7.2km/h 8.3mph /  13.4km/h 99% 0in /  0.0mm 0.00 W/m2
05:09 48.2 °F /  9.0 °C 47.8 °F /  8.8 °C 30.1in /  1020.1hPa NNW 7.6mph /  12.2km/h 9.2mph /  14.8km/h 99% 0in /  0.0mm 0.00 W/m2
05:14 48.2 °F /  9.0 °C 47.8 °F /  8.8 °C 30.1in /  1020.0hPa NNW 5.4mph /  8.7km/h 9.2mph /  14.8km/h 99% 0in /  0.0mm 0.00 W/m2
05:19 48 °F /  8.9 °C 47.8 °F /  8.8 °C 30.1in /  1020.2hPa NNW 4.5mph /  7.2km/h 9.2mph /  14.8km/h 99% 0in /  0.0mm 0.00 W/m2
05:24 48 °F /  8.9 °C 47.8 °F /  8.8 °C 30.1in /  1020.2hPa NNW 4.5mph /  7.2km/h 7.6mph /  12.2km/h 99% 0in /  0.0mm 0.00 W/m2
05:29 48 °F /  8.9 °C 47.8 °F /  8.8 °C 30.1in /  1020.4hPa NW 3.8mph /  6.1km/h 7.6mph /  12.2km/h 99% 0in /  0.0mm 0.00 W/m2
05:34 47.7 °F /  8.7 °C 47.5 °F /  8.6 °C 30.1in /  1020.3hPa NW 3.1mph /  5.0km/h 7.6mph /  12.2km/h 99% 0in /  0.0mm 0.00 W/m2
05:39 47.7 °F /  8.7 °C 47.5 °F /  8.6 °C 30.1in /  1020.6hPa NNW 3.8mph /  6.1km/h 7.6mph /  12.2km/h 99% 0in /  0.0mm 0.00 W/m2
05:44 47.7 °F /  8.7 °C 47.5 °F /  8.6 °C 30.1in /  1020.6hPa NNW 3.8mph /  6.1km/h 6.9mph /  11.1km/h 99% 0in /  0.0mm 2.00 W/m2
05:49 47.7 °F /  8.7 °C 47.5 °F /  8.6 °C 30.1in /  1020.6hPa NW 4.5mph /  7.2km/h 6.9mph /  11.1km/h 99% 0in /  0.0mm 4.00 W/m2
05:54 47.7 °F /  8.7 °C 47.5 °F /  8.6 °C 30.1in /  1020.8hPa NW 3.1mph /  5.0km/h 6.9mph /  11.1km/h 99% 0in /  0.0mm 6.00 W/m2
05:59 47.7 °F /  8.7 °C 47.5 °F /  8.6 °C 30.1in /  1020.7hPa NNW 3.1mph /  5.0km/h 6.9mph /  11.1km/h 99% 0in /  0.0mm 9.00 W/m2
06:04 47.7 °F /  8.7 °C 47.5 °F /  8.6 °C 30.1in /  1020.7hPa NNW 3.1mph /  5.0km/h 6.9mph /  11.1km/h 99% 0in /  0.0mm 11.00 W/m2
06:09 47.7 °F /  8.7 °C 47.5 °F /  8.6 °C 30.1in /  1020.7hPa NNW 5.4mph /  8.7km/h 6.9mph /  11.1km/h 99% 0in /  0.0mm 19.00 W/m2
06:14 47.7 °F /  8.7 °C 47.5 °F /  8.6 °C 30.1in /  1020.7hPa NNW 3.8mph /  6.1km/h 6.9mph /  11.1km/h 99% 0in /  0.0mm 22.00 W/m2
06:19 47.7 °F /  8.7 °C 47.5 °F /  8.6 °C 30.1in /  1020.7hPa NNW 5.4mph /  8.7km/h 8.3mph /  13.4km/h 99% 0in /  0.0mm 22.00 W/m2
06:24 47.7 °F /  8.7 °C 47.5 °F /  8.6 °C 30.1in /  1020.6hPa NNW 4.5mph /  7.2km/h 8.3mph /  13.4km/h 99% 0in /  0.0mm 22.00 W/m2
06:29 48 °F /  8.9 °C 47.8 °F /  8.8 °C 30.1in /  1020.7hPa NW 6mph /  9.7km/h 9.2mph /  14.8km/h 99% 0in /  0.0mm 24.00 W/m2
06:34 48 °F /  8.9 °C 47.8 °F /  8.8 °C 30.1in /  1020.6hPa NNW 6.9mph /  11.1km/h 9.2mph /  14.8km/h 99% 0in /  0.0mm 29.00 W/m2
06:39 48 °F /  8.9 °C 47.8 °F /  8.8 °C 30.1in /  1020.6hPa NNW 5.4mph /  8.7km/h 10.7mph /  17.2km/h 99% 0in /  0.0mm 33.00 W/m2
06:44 48 °F /  8.9 °C 47.8 °F /  8.8 °C 30.1in /  1020.6hPa NW 5.4mph /  8.7km/h 10.7mph /  17.2km/h 99% 0in /  0.0mm 48.00 W/m2
06:49 48.2 °F /  9.0 °C 47.8 °F /  8.8 °C 30.1in /  1020.7hPa NW 4.5mph /  7.2km/h 9.8mph /  15.8km/h 99% 0in /  0.0mm 90.00 W/m2
06:54 48.9 °F /  9.4 °C 48.7 °F /  9.3 °C 30.1in /  1020.6hPa NW 4.5mph /  7.2km/h 8.3mph /  13.4km/h 99% 0in /  0.0mm 94.00 W/m2
06:59 49.5 °F /  9.7 °C 49.3 °F /  9.6 °C 30.1in /  1020.7hPa NW 4.5mph /  7.2km/h 8.3mph /  13.4km/h 99% 0in /  0.0mm 106.00 W/m2
07:04 50 °F /  10.0 °C 49.6 °F /  9.8 °C 30.2in /  1021.0hPa NNW 5.4mph /  8.7km/h 8.3mph /  13.4km/h 99% 0in /  0.0mm 112.00 W/m2
07:09 50.4 °F /  10.2 °C 50.2 °F /  10.1 °C 30.2in /  1021.0hPa NNW 4.5mph /  7.2km/h 8.3mph /  13.4km/h 99% 0in /  0.0mm 130.00 W/m2
07:14 51.1 °F /  10.6 °C 50.5 °F /  10.3 °C 30.2in /  1021.0hPa NNW 4.5mph /  7.2km/h 7.6mph /  12.2km/h 98% 0in /  0.0mm 150.00 W/m2
07:19 51.6 °F /  10.9 °C 50.5 °F /  10.3 °C 30.2in /  1021.2hPa NNW 5.4mph /  8.7km/h 9.2mph /  14.8km/h 96% 0in /  0.0mm 159.00 W/m2
07:39 52.9 °F /  11.6 °C 50.4 °F /  10.2 °C 30.2in /  1021.1hPa NNW 5.4mph /  8.7km/h 7.6mph /  12.2km/h 91% 0in /  0.0mm 192.00 W/m2
07:44 53.8 °F /  12.1 °C 50.5 °F /  10.3 °C 30.2in /  1021.1hPa North 4.5mph /  7.2km/h 7.6mph /  12.2km/h 89% 0in /  0.0mm 211.00 W/m2
07:49 54.3 °F /  12.4 °C 50.7 °F /  10.4 °C 30.2in /  1021.4hPa North 4.5mph /  7.2km/h 9.2mph /  14.8km/h 88% 0in /  0.0mm 219.00 W/m2
07:54 54.7 °F /  12.6 °C 50.5 °F /  10.3 °C 30.2in /  1021.2hPa North 6mph /  9.7km/h 9.2mph /  14.8km/h 86% 0in /  0.0mm 237.00 W/m2
07:59 55 °F /  12.8 °C 50.5 °F /  10.3 °C 30.2in /  1021.3hPa North 4.5mph /  7.2km/h 9.2mph /  14.8km/h 85% 0in /  0.0mm 251.00 W/m2
08:04 55.8 °F /  13.2 °C 51.3 °F /  10.7 °C 30.2in /  1021.4hPa NNW 3.8mph /  6.1km/h 9.2mph /  14.8km/h 85% 0in /  0.0mm 261.00 W/m2
08:09 56.1 °F /  13.4 °C 51.6 °F /  10.9 °C 30.2in /  1021.5hPa NNW 3.1mph /  5.0km/h 6.9mph /  11.1km/h 85% 0in /  0.0mm 274.00 W/m2
08:14 57.2 °F /  14.0 °C 51.8 °F /  11.0 °C 30.2in /  1021.5hPa North 3.8mph /  6.1km/h 6.9mph /  11.1km/h 82% 0in /  0.0mm 278.00 W/m2
08:19 57.7 °F /  14.3 °C 52 °F /  11.1 °C 30.2in /  1021.4hPa North 3.8mph /  6.1km/h 6mph /  9.7km/h 81% 0in /  0.0mm 281.00 W/m2
08:24 57.9 °F /  14.4 °C 51.4 °F /  10.8 °C 30.2in /  1021.5hPa North 2.2mph /  3.5km/h 6.9mph /  11.1km/h 79% 0in /  0.0mm 310.00 W/m2
08:29 58.3 °F /  14.6 °C 51.8 °F /  11.0 °C 30.2in /  1021.7hPa North 3.8mph /  6.1km/h 6.9mph /  11.1km/h 79% 0in /  0.0mm 326.00 W/m2
08:34 59 °F /  15.0 °C 51.8 °F /  11.0 °C 30.2in /  1021.8hPa North 3.1mph /  5.0km/h 6.9mph /  11.1km/h 77% 0in /  0.0mm 337.00 W/m2
08:39 59.9 °F /  15.5 °C 52.3 °F /  11.3 °C 30.2in /  1021.9hPa NNW 3.1mph /  5.0km/h 6.9mph /  11.1km/h 76% 0in /  0.0mm 339.00 W/m2
08:44 60.1 °F /  15.6 °C 51.8 °F /  11.0 °C 30.2in /  1022.3hPa NNW 2.2mph /  3.5km/h 5.4mph /  8.7km/h 74% 0in /  0.0mm 364.00 W/m2
08:49 60.4 °F /  15.8 °C 52.5 °F /  11.4 °C 30.2in /  1022.2hPa NNW 2.2mph /  3.5km/h 6mph /  9.7km/h 75% 0in /  0.0mm 383.00 W/m2
08:54 61.5 °F /  16.4 °C 53.2 °F /  11.8 °C 30.2in /  1022.0hPa North 4.5mph /  7.2km/h 6mph /  9.7km/h 74% 0in /  0.0mm 402.00 W/m2
08:59 62.1 °F /  16.7 °C 52.9 °F /  11.6 °C 30.2in /  1022.2hPa North 3.1mph /  5.0km/h 6mph /  9.7km/h 72% 0in /  0.0mm 418.00 W/m2
09:04 62.6 °F /  17.0 °C 52.7 °F /  11.5 °C 30.2in /  1022.2hPa North 1.6mph /  2.6km/h 6mph /  9.7km/h 70% 0in /  0.0mm 433.00 W/m2
09:09 63.7 °F /  17.6 °C 53.8 °F /  12.1 °C 30.2in /  1022.0hPa NNW 1.6mph /  2.6km/h 4.5mph /  7.2km/h 70% 0in /  0.0mm 453.00 W/m2
09:14 63.9 °F /  17.7 °C 52.3 °F /  11.3 °C 30.2in /  1022.0hPa NW 3.1mph /  5.0km/h 5.4mph /  8.7km/h 66% 0in /  0.0mm 470.00 W/m2
09:19 63.5 °F /  17.5 °C 52.3 °F /  11.3 °C 30.2in /  1022.0hPa NNW 3.1mph /  5.0km/h 5.4mph /  8.7km/h 67% 0in /  0.0mm 485.00 W/m2
09:24 64.2 °F /  17.9 °C 53.1 °F /  11.7 °C 30.2in /  1022.2hPa NNW 1.6mph /  2.6km/h 5.4mph /  8.7km/h 67% 0in /  0.0mm 467.00 W/m2
09:29 65.3 °F /  18.5 °C 53.2 °F /  11.8 °C 30.2in /  1022.1hPa NW 3.1mph /  5.0km/h 4.5mph /  7.2km/h 65% 0in /  0.0mm 531.00 W/m2
09:34 65.7 °F /  18.7 °C 53.6 °F /  12.0 °C 30.2in /  1022.1hPa West 3.8mph /  6.1km/h 5.4mph /  8.7km/h 65% 0in /  0.0mm 508.00 W/m2
09:39 66 °F /  18.9 °C 54.3 °F /  12.4 °C 30.2in /  1022.4hPa WNW 3.1mph /  5.0km/h 5.4mph /  8.7km/h 66% 0in /  0.0mm 553.00 W/m2
09:44 67.6 °F /  19.8 °C 55 °F /  12.8 °C 30.2in /  1022.4hPa NNW 1.6mph /  2.6km/h 5.4mph /  8.7km/h 64% 0in /  0.0mm 584.00 W/m2
09:49 68 °F /  20.0 °C 53.2 °F /  11.8 °C 30.2in /  1022.4hPa NNE 3.8mph /  6.1km/h 6mph /  9.7km/h 59% 0in /  0.0mm 600.00 W/m2
09:54 66 °F /  18.9 °C 49.8 °F /  9.9 °C 30.2in /  1022.2hPa NW 6mph /  9.7km/h 9.2mph /  14.8km/h 56% 0in /  0.0mm 613.00 W/m2
09:59 65.3 °F /  18.5 °C 50.5 °F /  10.3 °C 30.2in /  1022.3hPa NW 3.8mph /  6.1km/h 9.2mph /  14.8km/h 59% 0in /  0.0mm 626.00 W/m2
10:04 65.3 °F /  18.5 °C 52 °F /  11.1 °C 30.2in /  1022.4hPa NW 6.9mph /  11.1km/h 9.2mph /  14.8km/h 62% 0in /  0.0mm 645.00 W/m2
10:09 64.8 °F /  18.2 °C 51.4 °F /  10.8 °C 30.2in /  1022.3hPa WSW 5.4mph /  8.7km/h 9.8mph /  15.8km/h 62% 0in /  0.0mm 667.00 W/m2
10:14 64.2 °F /  17.9 °C 51.4 °F /  10.8 °C 30.2in /  1022.3hPa West 6mph /  9.7km/h 9.8mph /  15.8km/h 63% 0in /  0.0mm 674.00 W/m2
10:19 63.9 °F /  17.7 °C 51.4 °F /  10.8 °C 30.2in /  1022.2hPa WSW 3.8mph /  6.1km/h 8.3mph /  13.4km/h 64% 0in /  0.0mm 678.00 W/m2
10:24 64.4 °F /  18.0 °C 52.3 °F /  11.3 °C 30.2in /  1022.0hPa WSW 2.2mph /  3.5km/h 8.3mph /  13.4km/h 65% 0in /  0.0mm 690.00 W/m2
10:29 65.5 °F /  18.6 °C 52.5 °F /  11.4 °C 30.2in /  1022.2hPa SW 3.1mph /  5.0km/h 7.6mph /  12.2km/h 63% 0in /  0.0mm 703.00 W/m2
10:34 66 °F /  18.9 °C 53.4 °F /  11.9 °C 30.2in /  1022.2hPa WSW 5.4mph /  8.7km/h 7.6mph /  12.2km/h 64% 0in /  0.0mm 711.00 W/m2
10:39 66 °F /  18.9 °C 51.8 °F /  11.0 °C 30.2in /  1021.9hPa West 3.1mph /  5.0km/h 7.6mph /  12.2km/h 60% 0in /  0.0mm 722.00 W/m2
10:44 66.6 °F /  19.2 °C 51.8 °F /  11.0 °C 30.2in /  1021.9hPa SSW 3.8mph /  6.1km/h 7.6mph /  12.2km/h 59% 0in /  0.0mm 729.00 W/m2
10:49 66.4 °F /  19.1 °C 53.4 °F /  11.9 °C 30.2in /  1021.9hPa SSW 3.1mph /  5.0km/h 6.9mph /  11.1km/h 63% 0in /  0.0mm 733.00 W/m2
10:54 66.9 °F /  19.4 °C 51.3 °F /  10.7 °C 30.2in /  1022.0hPa WSW 4.5mph /  7.2km/h 6.9mph /  11.1km/h 57% 0in /  0.0mm 749.00 W/m2
10:59 66.7 °F /  19.3 °C 52.9 °F /  11.6 °C 30.2in /  1021.9hPa South 3.8mph /  6.1km/h 6.9mph /  11.1km/h 61% 0in /  0.0mm 753.00 W/m2
11:04 66.2 °F /  19.0 °C 49.6 °F /  9.8 °C 30.2in /  1022.1hPa NE 4.5mph /  7.2km/h 7.6mph /  12.2km/h 55% 0in /  0.0mm 759.00 W/m2
11:09 66 °F /  18.9 °C 51.3 °F /  10.7 °C 30.2in /  1021.9hPa NW 3.8mph /  6.1km/h 7.6mph /  12.2km/h 59% 0in /  0.0mm 715.00 W/m2
11:14 65.8 °F /  18.8 °C 52 °F /  11.1 °C 30.2in /  1021.9hPa NW 3.8mph /  6.1km/h 7.6mph /  12.2km/h 61% 0in /  0.0mm 771.00 W/m2
11:19 66.4 °F /  19.1 °C 50.7 °F /  10.4 °C 30.2in /  1021.9hPa East 3.1mph /  5.0km/h 6.9mph /  11.1km/h 57% 0in /  0.0mm 780.00 W/m2
11:24 66.7 °F /  19.3 °C 48.6 °F /  9.2 °C 30.2in /  1021.7hPa East 3.1mph /  5.0km/h 6.9mph /  11.1km/h 52% 0in /  0.0mm 788.00 W/m2
11:29 67.1 °F /  19.5 °C 50.4 °F /  10.2 °C 30.2in /  1021.8hPa ENE 4.5mph /  7.2km/h 6.9mph /  11.1km/h 55% 0in /  0.0mm 798.00 W/m2
11:34 66.6 °F /  19.2 °C 51.8 °F /  11.0 °C 30.2in /  1021.9hPa NNE 6.9mph /  11.1km/h 8.3mph /  13.4km/h 59% 0in /  0.0mm 750.00 W/m2
11:39 65.8 °F /  18.8 °C 52.9 °F /  11.6 °C 30.2in /  1021.9hPa NW 5.4mph /  8.7km/h 9.2mph /  14.8km/h 63% 0in /  0.0mm 796.00 W/m2
11:44 65.7 °F /  18.7 °C 51.1 °F /  10.6 °C 30.2in /  1021.7hPa SW 4.5mph /  7.2km/h 9.2mph /  14.8km/h 59% 0in /  0.0mm 798.00 W/m2
11:49 65.7 °F /  18.7 °C 51.1 °F /  10.6 °C 30.2in /  1021.9hPa ESE 5.4mph /  8.7km/h 8.3mph /  13.4km/h 59% 0in /  0.0mm 804.00 W/m2
11:54 65.7 °F /  18.7 °C 51.4 °F /  10.8 °C 30.2in /  1021.8hPa NNE 6.9mph /  11.1km/h 9.2mph /  14.8km/h 60% 0in /  0.0mm 809.00 W/m2
11:59 65.7 °F /  18.7 °C 53.6 °F /  12.0 °C 30.2in /  1021.9hPa NNW 6mph /  9.7km/h 9.2mph /  14.8km/h 65% 0in /  0.0mm 808.00 W/m2
12:04 65.8 °F /  18.8 °C 53.2 °F /  11.8 °C 30.2in /  1021.8hPa NNW 6mph /  9.7km/h 9.8mph /  15.8km/h 64% 0in /  0.0mm 810.00 W/m2
12:09 66.2 °F /  19.0 °C 49.6 °F /  9.8 °C 30.2in /  1021.7hPa NW 3.8mph /  6.1km/h 9.8mph /  15.8km/h 55% 0in /  0.0mm 809.00 W/m2
12:14 66.6 °F /  19.2 °C 48.9 °F /  9.4 °C 30.2in /  1021.5hPa WNW 5.4mph /  8.7km/h 9.2mph /  14.8km/h 53% 0in /  0.0mm 812.00 W/m2
12:19 66.2 °F /  19.0 °C 47.7 °F /  8.7 °C 30.2in /  1021.6hPa WNW 5.4mph /  8.7km/h 8.3mph /  13.4km/h 51% 0in /  0.0mm 809.00 W/m2
12:24 66.4 °F /  19.1 °C 50.2 °F /  10.1 °C 30.2in /  1021.5hPa WNW 5.4mph /  8.7km/h 8.3mph /  13.4km/h 56% 0in /  0.0mm 810.00 W/m2
12:29 66.7 °F /  19.3 °C 50.5 °F /  10.3 °C 30.2in /  1021.6hPa West 6.9mph /  11.1km/h 9.8mph /  15.8km/h 56% 0in /  0.0mm 810.00 W/m2
12:34 66.4 °F /  19.1 °C 51.3 °F /  10.7 °C 30.2in /  1021.5hPa WNW 3.8mph /  6.1km/h 9.8mph /  15.8km/h 58% 0in /  0.0mm 806.00 W/m2
12:39 66.2 °F /  19.0 °C 51.4 °F /  10.8 °C 30.2in /  1021.5hPa NW 6.9mph /  11.1km/h 9.8mph /  15.8km/h 59% 0in /  0.0mm 804.00 W/m2
12:44 66.2 °F /  19.0 °C 51.4 °F /  10.8 °C 30.2in /  1021.6hPa SW 6mph /  9.7km/h 9.2mph /  14.8km/h 59% 0in /  0.0mm 803.00 W/m2
12:49 66.4 °F /  19.1 °C 51.6 °F /  10.9 °C 30.2in /  1021.5hPa West 6.9mph /  11.1km/h 9.2mph /  14.8km/h 59% 0in /  0.0mm 784.00 W/m2
12:54 66.6 °F /  19.2 °C 49.8 °F /  9.9 °C 30.2in /  1021.4hPa NNW 3.8mph /  6.1km/h 9.2mph /  14.8km/h 55% 0in /  0.0mm 791.00 W/m2
12:59 67.1 °F /  19.5 °C 50.4 °F /  10.2 °C 30.2in /  1021.4hPa North 5.4mph /  8.7km/h 8.3mph /  13.4km/h 55% 0in /  0.0mm 682.00 W/m2
13:04 67.3 °F /  19.6 °C 51.1 °F /  10.6 °C 30.2in /  1021.2hPa NNW 6.9mph /  11.1km/h 8.3mph /  13.4km/h 56% 0in /  0.0mm 801.00 W/m2
13:09 66.7 °F /  19.3 °C 51.1 °F /  10.6 °C 30.2in /  1021.2hPa WNW 6.9mph /  11.1km/h 9.2mph /  14.8km/h 57% 0in /  0.0mm 793.00 W/m2
13:14 66.7 °F /  19.3 °C 51.1 °F /  10.6 °C 30.2in /  1021.1hPa NW 5.4mph /  8.7km/h 9.2mph /  14.8km/h 57% 0in /  0.0mm 793.00 W/m2
13:19 67.3 °F /  19.6 °C 51.1 °F /  10.6 °C 30.2in /  1021.0hPa WSW 5.4mph /  8.7km/h 8.3mph /  13.4km/h 56% 0in /  0.0mm 792.00 W/m2
13:24 67.8 °F /  19.9 °C 51.6 °F /  10.9 °C 30.2in /  1021.1hPa SW 3.8mph /  6.1km/h 8.3mph /  13.4km/h 56% 0in /  0.0mm 778.00 W/m2
13:29 68.5 °F /  20.3 °C 52.2 °F /  11.2 °C 30.2in /  1020.9hPa WSW 4.5mph /  7.2km/h 9.2mph /  14.8km/h 56% 0in /  0.0mm 788.00 W/m2
13:34 68.4 °F /  20.2 °C 52.5 °F /  11.4 °C 30.2in /  1020.9hPa SW 5.4mph /  8.7km/h 9.2mph /  14.8km/h 57% 0in /  0.0mm 780.00 W/m2
13:39 68 °F /  20.0 °C 51.3 °F /  10.7 °C 30.1in /  1020.8hPa SSW 6mph /  9.7km/h 8.3mph /  13.4km/h 55% 0in /  0.0mm 775.00 W/m2
13:44 67.6 °F /  19.8 °C 50.4 °F /  10.2 °C 30.1in /  1020.5hPa WSW 3.8mph /  6.1km/h 8.3mph /  13.4km/h 54% 0in /  0.0mm 773.00 W/m2
13:49 68.4 °F /  20.2 °C 50.5 °F /  10.3 °C 30.1in /  1020.6hPa SW 4.5mph /  7.2km/h 8.3mph /  13.4km/h 53% 0in /  0.0mm 775.00 W/m2
13:54 69.1 °F /  20.6 °C 50.7 °F /  10.4 °C 30.1in /  1020.7hPa South 3.8mph /  6.1km/h 8.3mph /  13.4km/h 52% 0in /  0.0mm 738.00 W/m2
13:59 70 °F /  21.1 °C 49.5 °F /  9.7 °C 30.1in /  1020.6hPa SE 3.8mph /  6.1km/h 7.6mph /  12.2km/h 48% 0in /  0.0mm 746.00 W/m2
14:04 70.5 °F /  21.4 °C 48.2 °F /  9.0 °C 30.1in /  1020.4hPa SE 2.2mph /  3.5km/h 6.9mph /  11.1km/h 45% 0in /  0.0mm 660.00 W/m2
14:09 70 °F /  21.1 °C 48.4 °F /  9.1 °C 30.1in /  1020.4hPa ESE 6mph /  9.7km/h 8.3mph /  13.4km/h 46% 0in /  0.0mm 726.00 W/m2
14:14 69.4 °F /  20.8 °C 44.1 °F /  6.7 °C 30.1in /  1020.4hPa ENE 5.4mph /  8.7km/h 8.3mph /  13.4km/h 40% 0in /  0.0mm 742.00 W/m2
14:19 70 °F /  21.1 °C 46.6 °F /  8.1 °C 30.1in /  1020.3hPa North 2.2mph /  3.5km/h 8.3mph /  13.4km/h 43% 0in /  0.0mm 735.00 W/m2
14:24 70 °F /  21.1 °C 45.1 °F /  7.3 °C 30.1in /  1020.3hPa SE 5.4mph /  8.7km/h 8.3mph /  13.4km/h 41% 0in /  0.0mm 727.00 W/m2
14:29 70.2 °F /  21.2 °C 46 °F /  7.8 °C 30.1in /  1020.4hPa ESE 5.4mph /  8.7km/h 9.2mph /  14.8km/h 42% 0in /  0.0mm 725.00 W/m2
14:34 70.2 °F /  21.2 °C 47.3 °F /  8.5 °C 30.1in /  1020.2hPa Calm   9.2mph /  14.8km/h 44% 0in /  0.0mm 713.00 W/m2
14:39 70.9 °F /  21.6 °C 47.3 °F /  8.5 °C 30.1in /  1020.3hPa SE 4.5mph /  7.2km/h 8.3mph /  13.4km/h 43% 0in /  0.0mm 696.00 W/m2
14:44 70.3 °F /  21.3 °C 46.8 °F /  8.2 °C 30.1in /  1020.3hPa SE 3.8mph /  6.1km/h 8.3mph /  13.4km/h 43% 0in /  0.0mm 697.00 W/m2
14:49 70.5 °F /  21.4 °C 46.9 °F /  8.3 °C 30.1in /  1020.3hPa SE 3.8mph /  6.1km/h 8.3mph /  13.4km/h 43% 0in /  0.0mm 681.00 W/m2
14:54 70.5 °F /  21.4 °C 47.7 °F /  8.7 °C 30.1in /  1020.2hPa SE 5.4mph /  8.7km/h 8.3mph /  13.4km/h 44% 0in /  0.0mm 674.00 W/m2
14:59 70.2 °F /  21.2 °C 47.8 °F /  8.8 °C 30.1in /  1019.9hPa SE 3.8mph /  6.1km/h 9.8mph /  15.8km/h 45% 0in /  0.0mm 672.00 W/m2
15:04 70.7 °F /  21.5 °C 47.7 °F /  8.7 °C 30.1in /  1019.9hPa SE 4.5mph /  7.2km/h 9.8mph /  15.8km/h 44% 0in /  0.0mm 666.00 W/m2
15:09 70.7 °F /  21.5 °C 47.1 °F /  8.4 °C 30.1in /  1019.9hPa ESE 4.5mph /  7.2km/h 9.8mph /  15.8km/h 43% 0in /  0.0mm 658.00 W/m2
15:14 70.9 °F /  21.6 °C 46.8 °F /  8.2 °C 30.1in /  1020.0hPa SSE 5.4mph /  8.7km/h 9.8mph /  15.8km/h 42% 0in /  0.0mm 648.00 W/m2
15:19 71.1 °F /  21.7 °C 43.5 °F /  6.4 °C 30.1in /  1019.9hPa NNW 5.4mph /  8.7km/h 9.8mph /  15.8km/h 37% 0in /  0.0mm 641.00 W/m2
15:24 70.9 °F /  21.6 °C 41.2 °F /  5.1 °C 30.1in /  1019.7hPa ESE 6mph /  9.7km/h 9.8mph /  15.8km/h 34% 0in /  0.0mm 625.00 W/m2
15:29 70.9 °F /  21.6 °C 41.2 °F /  5.1 °C 30.1in /  1019.6hPa SE 5.4mph /  8.7km/h 9.8mph /  15.8km/h 34% 0in /  0.0mm 618.00 W/m2
15:34 71.1 °F /  21.7 °C 38.8 °F /  3.8 °C 30.1in /  1019.7hPa SSE 6.9mph /  11.1km/h 11.4mph /  18.3km/h 31% 0in /  0.0mm 611.00 W/m2
15:39 70.7 °F /  21.5 °C 40.3 °F /  4.6 °C 30.1in /  1019.5hPa SE 6.9mph /  11.1km/h 11.4mph /  18.3km/h 33% 0in /  0.0mm 600.00 W/m2
15:44 71.1 °F /  21.7 °C 40.5 °F /  4.7 °C 30.1in /  1019.4hPa SE 3.8mph /  6.1km/h 11.4mph /  18.3km/h 33% 0in /  0.0mm 590.00 W/m2
15:49 71.1 °F /  21.7 °C 39.7 °F /  4.3 °C 30.1in /  1019.5hPa SE 6.9mph /  11.1km/h 9.8mph /  15.8km/h 32% 0in /  0.0mm 579.00 W/m2
15:54 71.1 °F /  21.7 °C 42.1 °F /  5.6 °C 30.1in /  1019.6hPa SE 5.4mph /  8.7km/h 9.2mph /  14.8km/h 35% 0in /  0.0mm 570.00 W/m2
15:59 71.4 °F /  21.9 °C 43.2 °F /  6.2 °C 30.1in /  1019.6hPa South 6.9mph /  11.1km/h 9.2mph /  14.8km/h 36% 0in /  0.0mm 560.00 W/m2
16:04 70.7 °F /  21.5 °C 43.9 °F /  6.6 °C 30.1in /  1019.5hPa SSW 9.2mph /  14.8km/h 13mph /  20.9km/h 38% 0in /  0.0mm 547.00 W/m2
16:09 69.8 °F /  21.0 °C 45.7 °F /  7.6 °C 30.1in /  1019.6hPa SE 6.9mph /  11.1km/h 13mph /  20.9km/h 42% 0in /  0.0mm 538.00 W/m2
16:14 69.4 °F /  20.8 °C 47.8 °F /  8.8 °C 30.1in /  1019.6hPa SE 8.3mph /  13.4km/h 15.2mph /  24.5km/h 46% 0in /  0.0mm 523.00 W/m2
16:19 69.3 °F /  20.7 °C 48.7 °F /  9.3 °C 30.1in /  1019.3hPa SE 6mph /  9.7km/h 15.2mph /  24.5km/h 48% 0in /  0.0mm 514.00 W/m2
16:24 69.3 °F /  20.7 °C 49.3 °F /  9.6 °C 30.1in /  1019.1hPa SE 8.3mph /  13.4km/h 13.6mph /  21.9km/h 49% 0in /  0.0mm 499.00 W/m2
16:29 69.3 °F /  20.7 °C 48.2 °F /  9.0 °C 30.1in /  1019.0hPa SE 6mph /  9.7km/h 13mph /  20.9km/h 47% 0in /  0.0mm 487.00 W/m2
16:34 69.8 °F /  21.0 °C 49.8 °F /  9.9 °C 30.1in /  1018.8hPa SE 6mph /  9.7km/h 13mph /  20.9km/h 49% 0in /  0.0mm 479.00 W/m2
16:39 70 °F /  21.1 °C 48.4 °F /  9.1 °C 30.1in /  1018.6hPa SE 6.9mph /  11.1km/h 12.1mph /  19.5km/h 46% 0in /  0.0mm 466.00 W/m2
16:44 69.6 °F /  20.9 °C 48.6 °F /  9.2 °C 30.1in /  1018.8hPa ESE 5.4mph /  8.7km/h 13.6mph /  21.9km/h 47% 0in /  0.0mm 455.00 W/m2
16:49 70.3 °F /  21.3 °C 49.6 °F /  9.8 °C 30.1in /  1018.9hPa SE 6.9mph /  11.1km/h 13.6mph /  21.9km/h 48% 0in /  0.0mm 444.00 W/m2
16:54 70.3 °F /  21.3 °C 49.6 °F /  9.8 °C 30.1in /  1019.2hPa SE 5.4mph /  8.7km/h 10.7mph /  17.2km/h 48% 0in /  0.0mm 433.00 W/m2
16:59 70.2 °F /  21.2 °C 51.6 °F /  10.9 °C 30.1in /  1019.3hPa SE 7.6mph /  12.2km/h 12.1mph /  19.5km/h 52% 0in /  0.0mm 420.00 W/m2
17:04 69.3 °F /  20.7 °C 53.4 °F /  11.9 °C 30.1in /  1019.2hPa ESE 6.9mph /  11.1km/h 12.1mph /  19.5km/h 57% 0in /  0.0mm 406.00 W/m2
17:09 68.9 °F /  20.5 °C 54.5 °F /  12.5 °C 30.1in /  1019.2hPa ESE 6mph /  9.7km/h 12.1mph /  19.5km/h 60% 0in /  0.0mm 393.00 W/m2
17:14 69.3 °F /  20.7 °C 56.1 °F /  13.4 °C 30.1in /  1019.1hPa ESE 5.4mph /  8.7km/h 12.1mph /  19.5km/h 63% 0in /  0.0mm 381.00 W/m2
17:19 69.3 °F /  20.7 °C 56.1 °F /  13.4 °C 30.1in /  1018.9hPa ESE 8.3mph /  13.4km/h 10.7mph /  17.2km/h 63% 0in /  0.0mm 368.00 W/m2
17:24 68.5 °F /  20.3 °C 55.9 °F /  13.3 °C 30.1in /  1019.0hPa WSW 6.9mph /  11.1km/h 11.4mph /  18.3km/h 64% 0in /  0.0mm 352.00 W/m2
17:29 68.9 °F /  20.5 °C 56.1 °F /  13.4 °C 30.1in /  1019.1hPa SE 3.8mph /  6.1km/h 11.4mph /  18.3km/h 64% 0in /  0.0mm 344.00 W/m2
17:34 68.9 °F /  20.5 °C 56.1 °F /  13.4 °C 30.1in /  1018.9hPa SSE 5.4mph /  8.7km/h 9.8mph /  15.8km/h 64% 0in /  0.0mm 329.00 W/m2
17:39 68.5 °F /  20.3 °C 55.9 °F /  13.3 °C 30.1in /  1018.9hPa SSE 6.9mph /  11.1km/h 9.8mph /  15.8km/h 64% 0in /  0.0mm 319.00 W/m2
17:44 68.4 °F /  20.2 °C 56.1 °F /  13.4 °C 30.1in /  1018.9hPa SE 6mph /  9.7km/h 9.8mph /  15.8km/h 65% 0in /  0.0mm 306.00 W/m2
17:49 68.5 °F /  20.3 °C 56.3 °F /  13.5 °C 30.1in /  1018.9hPa SE 5.4mph /  8.7km/h 9.8mph /  15.8km/h 65% 0in /  0.0mm 300.00 W/m2
17:54 68.2 °F /  20.1 °C 55.9 °F /  13.3 °C 30.1in /  1018.8hPa SE 6mph /  9.7km/h 10.7mph /  17.2km/h 65% 0in /  0.0mm 285.00 W/m2
17:59 68.4 °F /  20.2 °C 57 °F /  13.9 °C 30.1in /  1018.9hPa SE 3.8mph /  6.1km/h 10.7mph /  17.2km/h 67% 0in /  0.0mm 275.00 W/m2
18:04 68.9 °F /  20.5 °C 56.7 °F /  13.7 °C 30.1in /  1018.9hPa SE 4.5mph /  7.2km/h 9.2mph /  14.8km/h 65% 0in /  0.0mm 265.00 W/m2
18:09 69.1 °F /  20.6 °C 56.8 °F /  13.8 °C 30.1in /  1018.8hPa SE 4.5mph /  7.2km/h 8.3mph /  13.4km/h 65% 0in /  0.0mm 255.00 W/m2
18:14 69.3 °F /  20.7 °C 57 °F /  13.9 °C 30.1in /  1018.9hPa ESE 3.1mph /  5.0km/h 8.3mph /  13.4km/h 65% 0in /  0.0mm 244.00 W/m2
18:19 69.3 °F /  20.7 °C 57 °F /  13.9 °C 30.1in /  1018.8hPa ESE 3.1mph /  5.0km/h 8.3mph /  13.4km/h 65% 0in /  0.0mm 236.00 W/m2
18:24 69.3 °F /  20.7 °C 57.4 °F /  14.1 °C 30.1in /  1018.8hPa ESE 3.1mph /  5.0km/h 8.3mph /  13.4km/h 66% 0in /  0.0mm 215.00 W/m2
18:29 69.4 °F /  20.8 °C 57.6 °F /  14.2 °C 30.1in /  1018.8hPa SE 3.8mph /  6.1km/h 8.3mph /  13.4km/h 66% 0in /  0.0mm 215.00 W/m2
18:34 69.3 °F /  20.7 °C 57.4 °F /  14.1 °C 30.1in /  1018.6hPa SE 2.2mph /  3.5km/h 7.6mph /  12.2km/h 66% 0in /  0.0mm 193.00 W/m2
18:39 68.9 °F /  20.5 °C 57 °F /  13.9 °C 30.1in /  1018.6hPa East 3.8mph /  6.1km/h 7.6mph /  12.2km/h 66% 0in /  0.0mm 159.00 W/m2
18:44 68.5 °F /  20.3 °C 57.9 °F /  14.4 °C 30.1in /  1018.6hPa ESE 3.1mph /  5.0km/h 6.9mph /  11.1km/h 69% 0in /  0.0mm 217.00 W/m2
18:49 69.4 °F /  20.8 °C 58.5 °F /  14.7 °C 30.1in /  1018.8hPa NW 2.2mph /  3.5km/h 6.9mph /  11.1km/h 68% 0in /  0.0mm 203.00 W/m2
18:54 69.4 °F /  20.8 °C 57.6 °F /  14.2 °C 30.1in /  1018.8hPa West 3.8mph /  6.1km/h 7.6mph /  12.2km/h 66% 0in /  0.0mm 186.00 W/m2
18:59 68.7 °F /  20.4 °C 57.4 °F /  14.1 °C 30.1in /  1018.8hPa SW 4.5mph /  7.2km/h 7.6mph /  12.2km/h 67% 0in /  0.0mm 115.00 W/m2
19:04 67.3 °F /  19.6 °C 57.9 °F /  14.4 °C 30.1in /  1018.8hPa NW 4.5mph /  7.2km/h 9.2mph /  14.8km/h 72% 0in /  0.0mm 145.00 W/m2
19:09 67.8 °F /  19.9 °C 58.5 °F /  14.7 °C 30.1in /  1018.7hPa WNW 4.5mph /  7.2km/h 9.2mph /  14.8km/h 72% 0in /  0.0mm 121.00 W/m2
19:14 67.8 °F /  19.9 °C 58.5 °F /  14.7 °C 30.1in /  1018.8hPa West 3.8mph /  6.1km/h 6.9mph /  11.1km/h 72% 0in /  0.0mm 93.00 W/m2
19:19 66.9 °F /  19.4 °C 58.5 °F /  14.7 °C 30.1in /  1018.8hPa SW 4.5mph /  7.2km/h 6.9mph /  11.1km/h 74% 0in /  0.0mm 57.00 W/m2
19:24 66.2 °F /  19.0 °C 57.7 °F /  14.3 °C 30.1in /  1018.6hPa SW 2.2mph /  3.5km/h 6.9mph /  11.1km/h 74% 0in /  0.0mm 66.00 W/m2
19:29 66.4 °F /  19.1 °C 57.9 °F /  14.4 °C 30.1in /  1018.7hPa WSW 0.7mph /  1.1km/h 5.4mph /  8.7km/h 74% 0in /  0.0mm 62.00 W/m2
19:34 66.7 °F /  19.3 °C 57.7 °F /  14.3 °C 30.1in /  1018.5hPa WSW 0.7mph /  1.1km/h 3.8mph /  6.1km/h 73% 0in /  0.0mm 31.00 W/m2
19:39 66.2 °F /  19.0 °C 57.4 °F /  14.1 °C 30.1in /  1018.3hPa SSW 2.2mph /  3.5km/h 3.8mph /  6.1km/h 73% 0in /  0.0mm 31.00 W/m2
19:44 65.1 °F /  18.4 °C 57.4 °F /  14.1 °C 30.1in /  1018.3hPa SW 2.2mph /  3.5km/h 4.5mph /  7.2km/h 76% 0in /  0.0mm 28.00 W/m2
19:49 64.6 °F /  18.1 °C 57.2 °F /  14.0 °C 30.1in /  1018.5hPa Calm   4.5mph /  7.2km/h 77% 0in /  0.0mm 29.00 W/m2
19:54 64.6 °F /  18.1 °C 57.2 °F /  14.0 °C 30.1in /  1018.4hPa SW 1.6mph /  2.6km/h 3.8mph /  6.1km/h 77% 0in /  0.0mm 28.00 W/m2
19:59 64.2 °F /  17.9 °C 57.6 °F /  14.2 °C 30.1in /  1018.4hPa Calm   3.1mph /  5.0km/h 79% 0in /  0.0mm 24.00 W/m2
20:04 64 °F /  17.8 °C 57.7 °F /  14.3 °C 30.1in /  1018.5hPa WSW 1.6mph /  2.6km/h 3.1mph /  5.0km/h 80% 0in /  0.0mm 16.00 W/m2
20:09 63.5 °F /  17.5 °C 57.2 °F /  14.0 °C 30.1in /  1018.4hPa WSW 1.6mph /  2.6km/h 3.1mph /  5.0km/h 80% 0in /  0.0mm 8.00 W/m2
20:14 62.8 °F /  17.1 °C 56.8 °F /  13.8 °C 30.1in /  1018.4hPa SW 1.6mph /  2.6km/h 3.1mph /  5.0km/h 81% 0in /  0.0mm 5.00 W/m2
20:19 62.2 °F /  16.8 °C 57 °F /  13.9 °C 30.1in /  1018.4hPa Calm   3.1mph /  5.0km/h 83% 0in /  0.0mm 3.00 W/m2
20:24 61.7 °F /  16.5 °C 56.5 °F /  13.6 °C 30.1in /  1018.5hPa Calm   3.1mph /  5.0km/h 83% 0in /  0.0mm 0.00 W/m2
20:29 61.3 °F /  16.3 °C 56.5 °F /  13.6 °C 30.1in /  1018.5hPa Calm   2.2mph /  3.5km/h 84% 0in /  0.0mm 0.00 W/m2
20:34 61 °F /  16.1 °C 56.1 °F /  13.4 °C 30.1in /  1018.6hPa Calm   2.2mph /  3.5km/h 84% 0in /  0.0mm 0.00 W/m2
20:39 60.8 °F /  16.0 °C 55.9 °F /  13.3 °C 30.1in /  1018.5hPa Calm     84% 0in /  0.0mm 0.00 W/m2
20:44 60.4 °F /  15.8 °C 56.7 °F /  13.7 °C 30.1in /  1018.6hPa North 2.2mph /  3.5km/h 3.8mph /  6.1km/h 87% 0in /  0.0mm 0.00 W/m2
20:49 60.1 °F /  15.6 °C 56.5 °F /  13.6 °C 30.1in /  1018.7hPa Calm   3.8mph /  6.1km/h 88% 0in /  0.0mm 0.00 W/m2
20:54 59.9 °F /  15.5 °C 56.7 °F /  13.7 °C 30.1in /  1018.6hPa North 3.1mph /  5.0km/h 3.8mph /  6.1km/h 89% 0in /  0.0mm 0.00 W/m2
20:59 59.7 °F /  15.4 °C 56.8 °F /  13.8 °C 30.1in /  1018.6hPa North 2.2mph /  3.5km/h 4.5mph /  7.2km/h 90% 0in /  0.0mm 0.00 W/m2
21:04 59.7 °F /  15.4 °C 57 °F /  13.9 °C 30.1in /  1018.8hPa NNW 0.7mph /  1.1km/h 4.5mph /  7.2km/h 91% 0in /  0.0mm 0.00 W/m2
21:09 59.5 °F /  15.3 °C 56.8 °F /  13.8 °C 30.1in /  1018.7hPa Calm   3.8mph /  6.1km/h 91% 0in /  0.0mm 0.00 W/m2
21:14 59.4 °F /  15.2 °C 56.7 °F /  13.7 °C 30.1in /  1018.7hPa NNW 1.6mph /  2.6km/h 3.1mph /  5.0km/h 91% 0in /  0.0mm 0.00 W/m2
21:19 59 °F /  15.0 °C 56.5 °F /  13.6 °C 30.1in /  1018.7hPa NW 0.7mph /  1.1km/h 3.8mph /  6.1km/h 91% 0in /  0.0mm 0.00 W/m2
21:24 58.8 °F /  14.9 °C 56.5 °F /  13.6 °C 30.1in /  1018.8hPa Calm   3.8mph /  6.1km/h 92% 0in /  0.0mm 0.00 W/m2
21:29 58.3 °F /  14.6 °C 55.9 °F /  13.3 °C 30.1in /  1018.7hPa Calm   2.2mph /  3.5km/h 92% 0in /  0.0mm 0.00 W/m2
21:34 58.3 °F /  14.6 °C 56.3 °F /  13.5 °C 30.1in /  1018.8hPa Calm   0.7mph /  1.1km/h 93% 0in /  0.0mm 0.00 W/m2
21:39 58.3 °F /  14.6 °C 56.7 °F /  13.7 °C 30.1in /  1018.8hPa Calm   0.7mph /  1.1km/h 94% 0in /  0.0mm 0.00 W/m2
21:44 58.3 °F /  14.6 °C 56.7 °F /  13.7 °C 30.1in /  1018.9hPa Calm     94% 0in /  0.0mm 0.00 W/m2
21:49 58.1 °F /  14.5 °C 56.5 °F /  13.6 °C 30.1in /  1018.9hPa Calm     94% 0in /  0.0mm 0.00 W/m2
21:54 58.1 °F /  14.5 °C 56.5 °F /  13.6 °C 30.1in /  1018.9hPa Calm     94% 0in /  0.0mm 0.00 W/m2
21:59 57.9 °F /  14.4 °C 56.1 °F /  13.4 °C 30.1in /  1018.8hPa Calm     94% 0in /  0.0mm 0.00 W/m2
22:04 57.7 °F /  14.3 °C 55.9 °F /  13.3 °C 30.1in /  1018.9hPa Calm     94% 0in /  0.0mm 0.00 W/m2
22:09 57.7 °F /  14.3 °C 56.3 °F /  13.5 °C 30.1in /  1018.9hPa NNW 1.6mph /  2.6km/h 3.8mph /  6.1km/h 95% 0in /  0.0mm 0.00 W/m2
22:14 57.4 °F /  14.1 °C 55.9 °F /  13.3 °C 30.1in /  1018.8hPa NW 1.6mph /  2.6km/h 3.8mph /  6.1km/h 95% 0in /  0.0mm 0.00 W/m2
22:19 57.2 °F /  14.0 °C 55.8 °F /  13.2 °C 30.1in /  1018.9hPa NW 2.2mph /  3.5km/h 3.8mph /  6.1km/h 95% 0in /  0.0mm 0.00 W/m2
22:24 56.8 °F /  13.8 °C 55.8 °F /  13.2 °C 30.1in /  1018.7hPa NW 0.7mph /  1.1km/h 3.8mph /  6.1km/h 96% 0in /  0.0mm 0.00 W/m2
22:29 56.8 °F /  13.8 °C 55.8 °F /  13.2 °C 30.1in /  1018.8hPa NW 2.2mph /  3.5km/h 3.8mph /  6.1km/h 96% 0in /  0.0mm 0.00 W/m2
22:34 56.7 °F /  13.7 °C 55.8 °F /  13.2 °C 30.1in /  1018.8hPa NW 2.2mph /  3.5km/h 3.1mph /  5.0km/h 97% 0in /  0.0mm 0.00 W/m2
22:39 56.5 °F /  13.6 °C 55.6 °F /  13.1 °C 30.1in /  1018.6hPa Calm   3.1mph /  5.0km/h 97% 0in /  0.0mm 0.00 W/m2
22:44 56.3 °F /  13.5 °C 55.6 °F /  13.1 °C 30.1in /  1018.6hPa Calm   3.1mph /  5.0km/h 97% 0in /  0.0mm 0.00 W/m2
22:49 56.1 °F /  13.4 °C 55.2 °F /  12.9 °C 30.1in /  1018.6hPa Calm     97% 0in /  0.0mm 0.00 W/m2
22:54 56.1 °F /  13.4 °C 55.2 °F /  12.9 °C 30.1in /  1018.5hPa Calm     97% 0in /  0.0mm 0.00 W/m2
22:59 55.9 °F /  13.3 °C 55.4 °F /  13.0 °C 30.1in /  1018.5hPa Calm     98% 0in /  0.0mm 0.00 W/m2
23:04 55.9 °F /  13.3 °C 55.4 °F /  13.0 °C 30.1in /  1018.3hPa Calm     98% 0in /  0.0mm 0.00 W/m2
23:09 55.9 °F /  13.3 °C 55.4 °F /  13.0 °C 30.1in /  1018.3hPa Calm     98% 0in /  0.0mm 0.00 W/m2
23:14 55.9 °F /  13.3 °C 55.4 °F /  13.0 °C 30.1in /  1018.3hPa NNW 1.6mph /  2.6km/h 3.1mph /  5.0km/h 98% 0in /  0.0mm 0.00 W/m2
23:19 55.9 °F /  13.3 °C 55.4 °F /  13.0 °C 30.1in /  1018.2hPa NNW 3.1mph /  5.0km/h 3.8mph /  6.1km/h 98% 0in /  0.0mm 0.00 W/m2
23:24 55.9 °F /  13.3 °C 55.8 °F /  13.2 °C 30.1in /  1018.2hPa NW 1.6mph /  2.6km/h 4.5mph /  7.2km/h 99% 0in /  0.0mm 0.00 W/m2
23:29 55.9 °F /  13.3 °C 55.4 °F /  13.0 °C 30.1in /  1018.2hPa NNW 1.6mph /  2.6km/h 4.5mph /  7.2km/h 98% 0in /  0.0mm 0.00 W/m2
23:34 55.8 °F /  13.2 °C 55.2 °F /  12.9 °C 30.1in /  1018.1hPa NNW 1.6mph /  2.6km/h 3.1mph /  5.0km/h 98% 0in /  0.0mm 0.00 W/m2
23:39 55.6 °F /  13.1 °C 55 °F /  12.8 °C 30.1in /  1018.1hPa NNW 0.7mph /  1.1km/h 4.5mph /  7.2km/h 98% 0in /  0.0mm 0.00 W/m2
23:44 55.6 °F /  13.1 °C 55 °F /  12.8 °C 30.1in /  1018.0hPa Calm   4.5mph /  7.2km/h 98% 0in /  0.0mm 0.00 W/m2
23:49 55.2 °F /  12.9 °C 54.3 °F /  12.4 °C 30.1in /  1018.0hPa Calm   2.2mph /  3.5km/h 97% 0in /  0.0mm 0.00 W/m2
23:54 55.2 °F /  12.9 °C 54.3 °F /  12.4 °C 30.1in /  1017.9hPa Calm     97% 0in /  0.0mm 0.00 W/m2
23:59 55 °F /  12.8 °C 54.1 °F /  12.3 °C 30.1in /  1017.9hPa Calm     97% 0in /  0.0mm 0.00 W/m2
Northern Hawkes Bay. New Zealand Historic Data
Compliments of Weather Underground - 2 mb